Data for 01/02/2009

Time Sea-Level Adjusted Pressure Absolute Pressure Temperature Relative Humidity Dew Point   
(mb) (inHg) (mb) (inHg) (C) (F) (%) (C) (F)
00:05 1000 29.53 829 24.48 3.8 38.9 67 -1.7 28.9
00:10 1000 29.53 829 24.48 3.9 39.1 65 -2.1 28.1
00:15 1000 29.53 829 24.48 4.2 39.6 64 -2 28.4
00:20 1000 29.53 829 24.48 4.2 39.5 66 -1.7 28.9
00:25 1000 29.53 829 24.48 3.9 39 67 -1.7 28.9
00:30 1000 29.53 829 24.48 3.9 39 66 -1.9 28.5
00:35 1000 29.53 829 24.48 3.9 39.1 66 -1.8 28.8
00:40 999 29.5 829 24.48 3.9 39 66 -2 28.5
00:45 999 29.5 829 24.48 3.9 39.1 66 -1.8 28.8
00:50 999 29.5 828 24.45 3.9 39.1 64 -2.2 28.1
00:55 999 29.5 828 24.45 4 39.2 66 -1.8 28.8
01:00 999 29.5 828 24.45 3.6 38.4 68 -1.7 28.9
01:05 999 29.5 828 24.45 3.4 38 69 -1.9 28.6
01:10 999 29.5 828 24.45 3.7 38.6 65 -2.3 27.8
01:15 999 29.5 828 24.45 4 39.2 66 -1.9 28.6
01:20 999 29.5 828 24.45 3.8 38.8 67 -1.8 28.7
01:25 999 29.5 828 24.45 3.6 38.5 68 -1.8 28.7
01:30 999 29.5 828 24.45 3.4 38.1 67 -2.1 28.2
01:35 999 29.5 828 24.45 3.4 38.2 67 -2.1 28.3
01:40 999 29.5 828 24.45 3.3 38 67 -2.2 28.1
01:45 999 29.5 828 24.45 3.5 38.3 67 -2 28.4
01:50 999 29.5 828 24.45 3.3 37.9 69 -1.9 28.6
01:55 999 29.5 828 24.45 3.1 37.6 68 -2.2 28.1
02:00 998 29.47 828 24.45 3.1 37.6 70 -1.8 28.8
02:05 998 29.47 828 24.45 2.6 36.8 69 -2.5 27.6
02:10 998 29.47 828 24.45 2.9 37.1 69 -2.3 27.9
02:15 998 29.47 828 24.45 2.8 37.1 70 -2.2 28.1
02:20 998 29.47 828 24.45 2.8 37.1 68 -2.6 27.4
02:25 998 29.47 828 24.45 3.4 38.1 66 -2.4 27.6
02:30 998 29.47 828 24.45 3.6 38.4 59 -3.6 25.5
02:35 998 29.47 828 24.45 4.2 39.5 62 -2.5 27.6
02:40 998 29.47 828 24.45 3.8 38.9 63 -2.6 27.2
02:45 998 29.47 828 24.45 3.4 38.2 65 -2.6 27.3
02:50 998 29.47 828 24.45 3.1 37.6 63 -3.3 26.1
02:55 998 29.47 827 24.42 4.3 39.7 57 -3.6 25.6
03:00 998 29.47 828 24.45 4.5 40.2 57 -3.2 26.3
03:05 998 29.47 828 24.45 4.6 40.2 58 -3 26.6
03:10 998 29.47 827 24.42 4.2 39.6 61 -2.7 27.2
03:15 998 29.47 827 24.42 3.3 37.9 65 -2.6 27.3
03:20 998 29.47 827 24.42 2.8 37.1 65 -3.1 26.5
03:25 998 29.47 827 24.42 3.1 37.6 62 -3.5 25.7
03:30 998 29.47 827 24.42 3.9 38.9 58 -3.8 25.2
03:35 998 29.47 827 24.42 4.5 40 54 -4 24.7
03:40 998 29.47 827 24.42 4.9 40.8 50 -4.7 23.6
03:45 998 29.47 827 24.42 6.3 43.3 44 -5.2 22.7
03:50 997 29.44 827 24.42 7.4 45.4 42 -4.6 23.7
03:55 997 29.44 826 24.39 7.6 45.6 41 -4.7 23.5
04:00 997 29.44 826 24.39 7.6 45.7 42 -4.3 24.2
04:05 997 29.44 826 24.39 7.5 45.4 43 -4.4 24
04:10 997 29.44 826 24.39 7.4 45.4 43 -4.5 24
04:15 997 29.44 826 24.39 7.4 45.4 42 -4.6 23.8
04:20 997 29.44 826 24.39 7.5 45.5 42 -4.6 23.8
04:25 997 29.44 826 24.39 7.5 45.4 42 -4.5 23.9
04:30 997 29.44 826 24.39 7.5 45.4 43 -4.4 24
04:35 997 29.44 826 24.39 7.4 45.4 42 -4.5 23.9
04:40 997 29.44 826 24.39 7.5 45.5 42 -4.5 23.9
04:45 997 29.44 826 24.39 7.6 45.7 41 -4.9 23.2
04:50 997 29.44 826 24.39 7.7 45.9 42 -4.5 24
04:55 997 29.44 826 24.39 7.6 45.6 40 -5.1 22.8
05:00 996 29.41 826 24.39 7.8 46 40 -4.9 23.2
05:05 996 29.41 826 24.39 7.7 45.9 41 -4.8 23.4
05:10 996 29.41 825 24.36 7.6 45.7 41 -4.7 23.5
05:15 996 29.41 826 24.39 7.6 45.7 40 -5.2 22.6
05:20 996 29.41 825 24.36 7.6 45.7 41 -4.7 23.6
05:25 996 29.41 825 24.36 7.4 45.4 42 -4.8 23.4
05:30 996 29.41 825 24.36 7.5 45.4 41 -4.9 23.1
05:35 996 29.41 825 24.36 7.7 45.9 40 -5.1 22.9
05:40 996 29.41 825 24.36 7.9 46.2 39 -5.2 22.7
05:45 996 29.41 825 24.36 7.7 45.9 41 -4.8 23.4
05:50 996 29.41 825 24.36 7.6 45.8 41 -4.9 23.2
05:55 996 29.41 825 24.36 7.8 46 41 -4.8 23.4
06:00 996 29.41 825 24.36 7.9 46.2 40 -4.9 23.2
06:05 996 29.41 825 24.36 7.8 46 41 -4.8 23.4
06:10 996 29.41 825 24.36 7.7 45.9 40 -5 23
06:15 996 29.41 825 24.36 7.8 46 41 -4.6 23.7
06:20 996 29.41 825 24.36 7.8 46 40 -5 22.9
06:25 996 29.41 825 24.36 7.9 46.2 41 -4.6 23.7
06:30 996 29.41 825 24.36 7.7 45.9 41 -4.7 23.5
06:35 996 29.41 825 24.36 7.6 45.7 42 -4.3 24.3
06:40 996 29.41 825 24.36 7.4 45.3 42 -4.6 23.8
06:45 996 29.41 825 24.36 7.3 45.1 45 -3.9 24.9
06:50 995 29.38 825 24.36 6.9 44.4 46 -4 24.8
06:55 995 29.38 825 24.36 6.5 43.8 49 -3.4 25.8
07:00 995 29.38 825 24.36 6.3 43.3 49 -3.6 25.4
07:05 995 29.38 824 24.33 6.4 43.6 45 -4.6 23.7
07:10 995 29.38 824 24.33 6.7 44.1 49 -3.3 26
07:15 995 29.38 824 24.33 6.8 44.2 43 -4.8 23.3
07:20 995 29.38 824 24.33 7.4 45.2 43 -4.5 23.9
07:25 995 29.38 824 24.33 7.1 44.7 45 -3.9 24.9
07:30 995 29.38 824 24.33 6.9 44.5 47 -3.6 25.5
07:35 995 29.38 824 24.33 6.6 44 47 -4 24.9
07:40 995 29.38 824 24.33 6.5 43.8 50 -3.2 26.3
07:45 995 29.38 824 24.33 6.4 43.6 48 -3.7 25.4
07:50 994 29.35 824 24.33 6.4 43.6 51 -2.9 26.7
07:55 994 29.35 823 24.3 6.3 43.4 50 -3.4 25.9
08:00 994 29.35 824 24.33 6.3 43.3 50 -3.4 25.8
08:05 994 29.35 823 24.3 6.3 43.3 50 -3.3 26.1
08:10 994 29.35 823 24.3 6.1 43.1 50 -3.5 25.8
08:15 994 29.35 823 24.3 6.2 43.2 52 -2.9 26.8
08:20 994 29.35 823 24.3 6 42.8 53 -2.9 26.7
08:25 994 29.35 823 24.3 5.9 42.7 51 -3.5 25.7
08:30 994 29.35 823 24.3 6 42.9 52 -3.2 26.3
08:35 994 29.35 823 24.3 6.3 43.3 50 -3.3 26
08:40 994 29.35 823 24.3 5.9 42.6 53 -3 26.7
08:45 994 29.35 823 24.3 5.8 42.5 53 -2.9 26.7
08:50 994 29.35 823 24.3 5.7 42.3 53 -3.3 26.1
08:55 993 29.32 823 24.3 6 42.8 50 -3.6 25.6
09:00 993 29.32 823 24.3 6.3 43.4 48 -4 24.8
09:05 993 29.32 822 24.27 6.5 43.7 47 -4.1 24.6
09:10 993 29.32 822 24.27 6.8 44.3 44 -4.7 23.6
09:15 993 29.32 822 24.27 6.9 44.5 48 -3.3 26
09:20 993 29.32 822 24.27 6.7 44.1 42 -5.1 22.8
09:25 993 29.32 822 24.27 7.1 44.8 43 -4.5 23.9
09:30 993 29.32 822 24.27 6.9 44.4 44 -4.6 23.7
09:35 993 29.32 822 24.27 7.2 44.9 43 -4.5 24
09:40 993 29.32 822 24.27 6.8 44.3 44 -4.4 24
09:45 993 29.32 822 24.27 7.3 45.1 41 -5.1 22.9
09:50 993 29.32 822 24.27 7.6 45.6 40 -5.3 22.5
09:55 993 29.32 822 24.27 7.7 45.9 38 -5.8 21.6
10:00 993 29.32 822 24.27 8 46.4 39 -5.2 22.6
10:05 993 29.32 822 24.27 7.7 45.9 41 -4.7 23.6
10:10 993 29.32 822 24.27 7.5 45.4 40 -5.3 22.5
10:15 993 29.32 822 24.27 7.6 45.7 40 -5.3 22.5
10:20 993 29.32 822 24.27 7.6 45.6 41 -4.9 23.2
10:25 993 29.32 822 24.27 7.5 45.5 40 -5.2 22.7
10:30 993 29.32 822 24.27 7.6 45.7 40 -5.1 22.8
10:35 993 29.32 822 24.27 7.6 45.7 40 -5.2 22.7
10:40 993 29.32 822 24.27 7.7 45.8 40 -5.1 22.9
10:45 992 29.29 822 24.27 7.8 46 38 -5.7 21.7
10:50 992 29.29 822 24.27 7.8 46.1 39 -5.3 22.4
10:55 992 29.29 822 24.27 7.7 45.8 42 -4.3 24.3
11:00 992 29.29 822 24.27 7.6 45.7 39 -5.3 22.5
11:05 992 29.29 821 24.24 7.9 46.2 40 -4.7 23.6
11:10 992 29.29 821 24.24 7.9 46.1 40 -4.9 23.1
11:15 992 29.29 821 24.24 7.8 46.1 37 -5.9 21.5
11:20 992 29.29 821 24.24 8 46.4 39 -5.2 22.6
11:25 992 29.29 821 24.24 7.9 46.2 42 -4.2 24.5
11:30 992 29.29 821 24.24 7.4 45.3 46 -3.6 25.6
11:35 992 29.29 821 24.24 6.9 44.4 50 -2.9 26.8
11:40 992 29.29 821 24.24 6.3 43.3 52 -2.7 27.1
11:45 992 29.29 821 24.24 6.2 43.2 47 -4.2 24.4
11:50 992 29.29 821 24.24 6.9 44.5 46 -3.9 25
11:55 992 29.29 822 24.27 7.3 45.1 43 -4.4 24.1
12:00 992 29.29 821 24.24 7.1 44.8 45 -4.1 24.5
12:05 992 29.29 821 24.24 6.8 44.2 46 -3.9 25
12:10 992 29.29 822 24.27 6.6 43.9 51 -2.8 26.9
12:15 992 29.29 821 24.24 5.8 42.4 57 -2 28.3
12:20 992 29.29 821 24.24 5 41.1 63 -1.4 29.5
12:25 992 29.29 822 24.27 4.3 39.8 73 -0.2 31.7
12:30 992 29.29 822 24.27 3.8 38.9 74 -0.4 31.2
12:35 992 29.29 821 24.24 4 39.1 72 -0.6 30.9
12:40 992 29.29 821 24.24 3.9 39.1 75 -0.2 31.7
12:45 992 29.29 821 24.24 3.6 38.5 74 -0.5 31.1
12:50 992 29.29 821 24.24 3.8 38.9 73 -0.7 30.8
12:55 992 29.29 821 24.24 4.3 39.8 67 -1.2 29.8
13:00 992 29.29 821 24.24 5.1 41.2 56 -2.9 26.7
13:05 992 29.29 821 24.24 6.1 42.9 52 -3.1 26.4
13:10 992 29.29 821 24.24 6.8 44.3 46 -4.1 24.6
13:15 992 29.29 821 24.24 7.3 45.2 44 -4.2 24.4
13:20 992 29.29 821 24.24 7.7 45.8 43 -4.3 24.3
13:25 992 29.29 821 24.24 7.8 46.1 38 -5.4 22.2
13:30 992 29.29 821 24.24 7.9 46.3 38 -5.5 22.1
13:35 992 29.29 821 24.24 7.8 46.1 41 -4.7 23.5
13:40 992 29.29 821 24.24 7.9 46.2 40 -4.9 23.2
13:45 992 29.29 822 24.27 8 46.4 39 -5 23
13:50 993 29.32 822 24.27 8.2 46.8 44 -3.2 26.3
13:55 994 29.35 823 24.3 5.1 41.2 76 1.2 34.2
14:00 995 29.38 824 24.33 2 35.5 88 0.1 32.2
14:05 995 29.38 824 24.33 1 33.7 93 -0.1 31.8
14:10 995 29.38 824 24.33 0.5 32.9 95 -0.2 31.7
14:15 995 29.38 825 24.36 0.3 32.6 96 -0.3 31.5
14:20 996 29.41 825 24.36 0.2 32.4 96 -0.3 31.5
14:25 996 29.41 825 24.36 0.2 32.3 96 -0.3 31.4
14:30 996 29.41 825 24.36 0.2 32.3 97 -0.3 31.5
14:35 996 29.41 825 24.36 0.2 32.3 96 -0.4 31.3
14:40 996 29.41 825 24.36 0.2 32.4 95 -0.5 31
14:45 997 29.44 826 24.39 0.4 32.6 94 -0.5 31.1
14:50 997 29.44 826 24.39 0.4 32.7 92 -0.8 30.6
14:55 997 29.44 826 24.39 0.4 32.7 90 -1.1 30.1
15:00 997 29.44 826 24.39 0.5 32.9 88 -1.3 29.7
15:05 997 29.44 826 24.39 0.8 33.4 85 -1.5 29.3
15:10 997 29.44 826 24.39 0.9 33.7 81 -1.9 28.5
15:15 997 29.44 827 24.42 1.1 34 84 -1.2 29.8
15:20 998 29.47 827 24.42 1.1 34 88 -0.7 30.8
15:25 998 29.47 827 24.42 1.1 34 85 -1.2 29.9
15:30 998 29.47 827 24.42 1.2 34.1 85 -1.1 30
15:35 998 29.47 827 24.42 1.3 34.3 86 -0.8 30.6
15:40 998 29.47 827 24.42 1.1 34 88 -0.7 30.8
15:45 998 29.47 827 24.42 1.1 33.9 89 -0.6 30.9
15:50 998 29.47 827 24.42 1 33.8 89 -0.6 31
15:55 998 29.47 828 24.45 0.9 33.6 90 -0.6 30.9
16:00 998 29.47 828 24.45 0.7 33.2 90 -0.7 30.7
16:05 999 29.5 828 24.45 0.5 33 90 -0.9 30.4
16:10 999 29.5 828 24.45 0.5 32.8 90 -1 30.3
16:15 999 29.5 828 24.45 0.4 32.6 90 -1.1 30
16:20 999 29.5 828 24.45 0.3 32.6 90 -1.2 29.9
16:25 999 29.5 828 24.45 0.2 32.3 90 -1.3 29.6
16:30 999 29.5 828 24.45 0.2 32.3 89 -1.4 29.5
16:35 999 29.5 828 24.45 0.1 32.1 89 -1.5 29.4
16:40 999 29.5 829 24.48 0 32 89 -1.6 29.1
16:45 999 29.5 829 24.48 -0.1 31.8 88 -1.8 28.7
16:50 1000 29.53 829 24.48 -0.4 31.3 86 -2.5 27.5
16:55 1000 29.53 829 24.48 -0.7 30.7 85 -3 26.6
17:00 1000 29.53 829 24.48 -0.9 30.3 83 -3.4 25.9
17:05 1000 29.53 829 24.48 -1.1 30.1 82 -3.7 25.3
17:10 1000 29.53 830 24.51 -1.1 30.1 80 -4.1 24.6
17:15 1001 29.56 830 24.51 -1.1 30 79 -4.2 24.4
17:20 1001 29.56 830 24.51 -1.1 30 73 -5.3 22.5
17:25 1001 29.56 830 24.51 -1.4 29.4 70 -6.2 20.9
17:30 1001 29.56 831 24.54 -1.9 28.6 71 -6.4 20.5
17:35 1002 29.59 831 24.54 -2.1 28.2 75 -6 21.1
17:40 1002 29.59 831 24.54 -2.4 27.6 77 -5.9 21.4
17:45 1002 29.59 831 24.54 -2.7 27.2 76 -6.4 20.6
17:50 1002 29.59 831 24.54 -2.8 26.9 75 -6.6 20.1
17:55 1002 29.59 831 24.54 -3.2 26.3 72 -7.6 18.4
18:00 1002 29.59 831 24.54 -3.2 26.2 74 -7.2 19
18:05 1002 29.59 831 24.54 -3.4 25.9 73 -7.5 18.4
18:10 1002 29.59 831 24.54 -3.6 25.6 70 -8.2 17.2
18:15 1002 29.59 831 24.54 -3.5 25.7 72 -7.8 17.9
18:20 1002 29.59 831 24.54 -3.4 25.9 71 -7.9 17.9
18:25 1002 29.59 832 24.57 -3.6 25.5 72 -7.9 17.9
18:30 1002 29.59 832 24.57 -3.5 25.8 71 -8 17.6
18:35 1003 29.62 832 24.57 -3.6 25.6 69 -8.5 16.8
18:40 1003 29.62 832 24.57 -3.6 25.5 67 -8.9 15.9
18:45 1003 29.62 832 24.57 -3.5 25.6 69 -8.5 16.7
18:50 1003 29.62 832 24.57 -3.5 25.7 66 -9.1 15.7
18:55 1003 29.62 832 24.57 -3.5 25.7 66 -9 15.8
19:00 1003 29.62 832 24.57 -3.7 25.3 66 -9.2 15.5
19:05 1003 29.62 832 24.57 -3.8 25.2 64 -9.7 14.5
19:10 1003 29.62 832 24.57 -3.8 25.1 63 -9.9 14.2
19:15 1003 29.62 832 24.57 -3.7 25.3 65 -9.4 15
19:20 1003 29.62 832 24.57 -3.7 25.3 66 -9.2 15.5
19:25 1003 29.62 833 24.6 -3.7 25.3 64 -9.7 14.6
19:30 1003 29.62 833 24.6 -3.9 25 64 -9.7 14.6
19:35 1004 29.65 833 24.6 -4 24.8 65 -9.7 14.6
19:40 1004 29.65 833 24.6 -4.1 24.7 66 -9.5 15
19:45 1004 29.65 833 24.6 -4.1 24.7 69 -8.9 16
19:50 1004 29.65 833 24.6 -4.2 24.4 68 -9.3 15.3
19:55 1004 29.65 833 24.6 -4.4 24.2 69 -9.3 15.3
20:00 1004 29.65 833 24.6 -4.5 23.9 69 -9.4 15.1
20:05 1004 29.65 833 24.6 -4.7 23.6 68 -9.8 14.4
20:10 1004 29.65 833 24.6 -4.9 23.2 69 -9.8 14.3
20:15 1004 29.65 833 24.6 -5.1 22.9 71 -9.6 14.7
20:20 1004 29.65 833 24.6 -5.2 22.6 71 -9.8 14.4
20:25 1004 29.65 833 24.6 -5.3 22.4 71 -9.8 14.3
20:30 1004 29.65 833 24.6 -5.4 22.3 71 -9.9 14.2
20:35 1004 29.65 833 24.6 -5.4 22.3 71 -9.8 14.3
20:40 1004 29.65 833 24.6 -5.4 22.3 70 -10 14
20:45 1004 29.65 833 24.6 -5.4 22.3 71 -10 14.1
20:50 1004 29.65 833 24.6 -5.4 22.3 71 -9.9 14.1
20:55 1004 29.65 833 24.6 -5.4 22.2 68 -10.4 13.3
21:00 1004 29.65 834 24.63 -5.6 21.8 72 -10 14
21:05 1004 29.65 834 24.63 -5.6 21.8 70 -10.2 13.6
21:10 1005 29.68 834 24.63 -5.6 22 68 -10.5 13.1
21:15 1005 29.68 834 24.63 -5.6 22 69 -10.4 13.2
21:20 1005 29.68 834 24.63 -5.6 21.9 68 -10.7 12.8
21:25 1005 29.68 834 24.63 -5.7 21.8 69 -10.5 13
21:30 1005 29.68 834 24.63 -5.9 21.5 69 -10.7 12.8
21:35 1005 29.68 834 24.63 -6 21.3 69 -10.7 12.7
21:40 1005 29.68 834 24.63 -6.1 21 70 -10.8 12.5
21:45 1005 29.68 834 24.63 -6.2 20.8 71 -10.8 12.6
21:50 1005 29.68 834 24.63 -6.2 20.8 70 -10.7 12.7
21:55 1005 29.68 834 24.63 -6.3 20.7 70 -10.8 12.5
22:00 1005 29.68 834 24.63 -6.4 20.6 71 -10.7 12.7
22:05 1006 29.71 835 24.66 -6.4 20.4 72 -10.8 12.6
22:10 1006 29.71 835 24.66 -6.8 19.8 73 -10.9 12.4
22:15 1006 29.71 835 24.66 -7.3 18.9 77 -10.7 12.8
22:20 1006 29.71 835 24.66 -7.5 18.5 77 -10.8 12.5
22:25 1006 29.71 835 24.66 -7.5 18.6 78 -10.7 12.8
22:30 1006 29.71 835 24.66 -7.3 18.9 77 -10.6 12.9
22:35 1006 29.71 835 24.66 -7.3 18.9 78 -10.6 13
22:40 1006 29.71 835 24.66 -7.5 18.5 77 -10.8 12.5
22:45 1006 29.71 835 24.66 -7.5 18.5 77 -10.9 12.4
22:50 1006 29.71 835 24.66 -7.5 18.5 76 -11 12.2
22:55 1006 29.71 835 24.66 -7.5 18.6 78 -10.7 12.7
23:00 1006 29.71 835 24.66 -7.3 18.8 77 -10.7 12.8
23:05 1006 29.71 835 24.66 -7.3 18.9 78 -10.5 13.2
23:10 1006 29.71 835 24.66 -7.3 18.9 80 -10.1 13.8
23:15 1006 29.71 835 24.66 -7.3 18.9 80 -10.1 13.8
23:20 1006 29.71 836 24.69 -7.4 18.6 81 -10.1 13.7
23:25 1006 29.71 836 24.69 -7.5 18.5 81 -10.3 13.4
23:30 1006 29.71 836 24.69 -7.6 18.4 81 -10.4 13.3
23:35 1007 29.74 836 24.69 -7.6 18.2 78 -10.9 12.4
23:40 1007 29.74 836 24.69 -7.8 18 79 -10.9 12.4
23:45 1007 29.74 836 24.69 -7.9 17.8 79 -10.9 12.3
23:50 1007 29.74 836 24.69 -8 17.7 80 -10.8 12.6
23:55 1007 29.74 836 24.69 -8.1 17.4 82 -10.7 12.8
24:00 1007 29.74 836 24.69 -8.2 17.3 83 -10.6 12.9